createdAt,value
2023-05-16T03:00:32.152Z,99191.22
2023-05-16T03:03:01.257Z,99193.71
2023-05-16T03:05:31.519Z,99197.70
2023-05-16T03:08:00.756Z,99199.42
2023-05-16T03:10:30.040Z,99197.41
2023-05-16T03:12:59.018Z,99205.82
2023-05-16T03:15:28.927Z,99203.11
2023-05-16T03:17:58.877Z,99205.27
2023-05-16T03:20:28.144Z,99204.15
2023-05-16T03:22:58.788Z,99209.20
2023-05-16T03:25:27.738Z,99206.16
2023-05-16T03:27:57.347Z,99211.95
2023-05-16T03:30:27.337Z,99214.54
2023-05-16T03:32:56.706Z,99213.01
2023-05-16T03:35:26.318Z,99220.13
2023-05-16T03:37:56.084Z,99220.96
2023-05-16T03:40:25.758Z,99222.39
2023-05-16T03:42:54.072Z,99223.67
2023-05-16T03:45:23.110Z,99222.07
2023-05-16T03:47:51.910Z,99226.19
2023-05-16T03:50:20.841Z,99229.91
2023-05-16T03:52:49.669Z,99231.11
2023-05-16T03:55:19.044Z,99232.33
2023-05-16T03:57:48.785Z,99231.83
2023-05-16T04:00:17.804Z,99239.02
2023-05-16T04:02:46.973Z,99237.12
2023-05-16T04:05:15.876Z,99236.49
2023-05-16T04:07:44.794Z,99240.54
2023-05-16T04:10:15.893Z,99248.36
2023-05-16T04:12:45.156Z,99249.11
2023-05-16T04:15:14.397Z,99249.41
2023-05-16T04:17:43.526Z,99247.42
2023-05-16T04:20:12.847Z,99258.99
2023-05-16T04:22:42.610Z,99263.33
2023-05-16T04:25:13.294Z,99264.58
2023-05-16T04:27:42.693Z,99265.16
2023-05-16T04:30:12.486Z,99268.05
2023-05-16T04:32:41.726Z,99270.14
2023-05-16T04:35:11.159Z,99274.38
2023-05-16T04:37:39.618Z,99277.03
2023-05-16T04:40:10.254Z,99280.48
2023-05-16T04:42:38.853Z,99285.37
2023-05-16T04:45:11.950Z,99286.73
2023-05-16T04:47:41.545Z,99289.11
2023-05-16T04:50:10.882Z,99292.24
2023-05-16T04:52:39.787Z,99302.30
2023-05-16T04:55:08.769Z,99301.20
2023-05-16T04:57:37.837Z,99309.62
2023-05-16T05:00:12.155Z,99314.00
2023-05-16T05:02:41.260Z,99314.48
2023-05-16T05:05:09.987Z,99313.14
2023-05-16T05:07:39.050Z,99315.95
2023-05-16T05:10:08.800Z,99319.08
2023-05-16T05:12:38.033Z,99326.16
2023-05-16T05:15:07.544Z,99339.73
2023-05-16T05:17:36.075Z,99346.96
2023-05-16T05:20:11.023Z,99350.05
2023-05-16T05:22:40.288Z,99359.48
2023-05-16T05:25:08.881Z,99364.11
2023-05-16T05:27:37.759Z,99368.66
2023-05-16T05:30:06.634Z,99370.89
2023-05-16T05:32:35.477Z,99379.13
2023-05-16T05:35:04.247Z,99382.63
2023-05-16T05:37:32.850Z,99385.73
2023-05-16T05:40:01.699Z,99387.40
2023-05-16T05:42:30.568Z,99394.98
2023-05-16T05:44:59.657Z,99395.96
2023-05-16T05:47:28.120Z,99400.80
2023-05-16T05:49:56.511Z,99397.84
2023-05-16T05:52:25.301Z,99401.59
2023-05-16T05:54:54.187Z,99403.67
2023-05-16T05:57:22.877Z,99407.91
2023-05-16T05:59:51.294Z,99404.52
2023-05-16T06:02:21.028Z,99404.30
2023-05-16T06:04:50.879Z,99410.45
2023-05-16T06:07:20.003Z,99417.44
2023-05-16T06:09:48.465Z,99419.59
2023-05-16T06:12:17.540Z,99424.27
2023-05-16T06:14:45.939Z,99429.85
2023-05-16T06:17:16.406Z,99429.52
2023-05-16T06:19:45.393Z,99429.70
2023-05-16T06:22:14.916Z,99434.48
2023-05-16T06:24:43.973Z,99435.63
2023-05-16T06:27:12.687Z,99435.51
2023-05-16T06:29:41.496Z,99442.81
2023-05-16T06:32:13.326Z,99450.20
2023-05-16T06:34:45.792Z,99454.29
2023-05-16T06:37:14.296Z,99460.35
2023-05-16T06:39:43.185Z,99467.38
2023-05-16T06:42:12.261Z,99469.94
2023-05-16T06:44:41.627Z,99473.98
2023-05-16T06:47:11.168Z,99478.04
2023-05-16T06:49:39.821Z,99475.95
2023-05-16T06:52:08.104Z,99478.45
2023-05-16T06:54:37.009Z,99483.31
2023-05-16T06:57:05.811Z,99489.40
2023-05-16T06:59:36.029Z,99493.46
2023-05-16T07:02:05.003Z,99502.95
2023-05-16T07:04:36.962Z,99506.97
2023-05-16T07:07:08.495Z,99512.37
2023-05-16T07:09:37.198Z,99514.21
2023-05-16T07:12:06.025Z,99520.58
2023-05-16T07:14:34.840Z,99527.35
2023-05-16T07:17:03.803Z,99526.33
2023-05-16T07:19:33.187Z,99531.37
2023-05-16T07:22:02.499Z,99532.77
2023-05-16T07:24:31.595Z,99542.82
2023-05-16T07:27:00.563Z,99549.55
2023-05-16T07:29:31.033Z,99548.29
2023-05-16T07:32:00.355Z,99549.25
2023-05-16T07:34:29.383Z,99554.02
2023-05-16T07:36:58.552Z,99550.66
2023-05-16T07:39:27.700Z,99552.70
2023-05-16T07:41:57.236Z,99560.18
2023-05-16T07:44:26.308Z,99558.09
2023-05-16T07:46:55.282Z,99567.10
2023-05-16T07:49:24.245Z,99567.05
2023-05-16T07:51:52.613Z,99576.14
2023-05-16T07:54:22.416Z,99580.68
2023-05-16T07:56:52.412Z,99580.15
2023-05-16T07:59:21.260Z,99585.86
2023-05-16T08:01:49.955Z,99585.23
2023-05-16T08:04:19.133Z,99592.20
2023-05-16T08:06:48.218Z,99600.41
2023-05-16T08:09:17.206Z,99604.80
2023-05-16T08:11:47.002Z,99607.70
2023-05-16T08:14:15.505Z,99608.30
2023-05-16T08:16:44.706Z,99609.78
2023-05-16T08:19:13.980Z,99609.49
2023-05-16T08:21:43.106Z,99606.66
2023-05-16T08:24:12.584Z,99611.56
2023-05-16T08:26:41.817Z,99612.39
2023-05-16T08:29:10.102Z,99624.70
2023-05-16T08:31:38.837Z,99621.73
2023-05-16T08:34:07.710Z,99626.73
2023-05-16T08:36:38.008Z,99631.52
2023-05-16T08:39:06.403Z,99634.31
2023-05-16T08:41:35.471Z,99635.80
2023-05-16T08:44:05.167Z,99643.61
2023-05-16T08:46:37.919Z,99650.72
2023-05-16T08:49:08.216Z,99658.45
2023-05-16T08:51:38.270Z,99660.34
2023-05-16T08:54:10.580Z,99661.54
2023-05-16T08:56:41.859Z,99662.46
2023-05-16T08:59:12.671Z,99661.61
2023-05-16T09:01:41.722Z,99659.15
2023-05-16T09:04:10.607Z,99658.59
2023-05-16T09:06:40.800Z,99661.30
2023-05-16T09:09:13.173Z,99661.81
2023-05-16T09:11:43.433Z,99665.02
2023-05-16T09:14:13.257Z,99673.98
2023-05-16T09:16:41.906Z,99675.98
2023-05-16T09:19:17.185Z,99678.55
2023-05-16T09:21:46.786Z,99682.19
2023-05-16T09:24:16.690Z,99688.40
2023-05-16T09:26:44.969Z,99699.77
2023-05-16T09:29:14.338Z,99701.64
2023-05-16T09:31:42.832Z,99704.80
2023-05-16T09:34:11.658Z,99705.48
2023-05-16T09:36:42.158Z,99710.10
2023-05-16T09:39:15.900Z,99719.63
2023-05-16T09:41:44.835Z,99728.02
2023-05-16T09:44:13.477Z,99726.69
2023-05-16T09:46:42.570Z,99726.50
2023-05-16T09:49:15.062Z,99724.90
2023-05-16T09:51:44.398Z,99718.17
2023-05-16T09:54:13.200Z,99724.49
2023-05-16T09:56:52.195Z,99725.72
2023-05-16T09:59:22.703Z,99728.92
2023-05-16T10:01:53.713Z,99728.34
2023-05-16T10:04:23.043Z,99730.84
2023-05-16T10:06:55.397Z,99721.67
2023-05-16T10:09:24.835Z,99719.40
2023-05-16T10:11:53.883Z,99728.84
2023-05-16T10:14:23.340Z,99735.28
2023-05-16T10:16:53.097Z,99745.17
2023-05-16T10:19:23.672Z,99746.27
2023-05-16T10:21:53.583Z,99749.73
2023-05-16T10:24:24.699Z,99754.55
2023-05-16T10:26:54.221Z,99764.52
2023-05-16T10:29:23.249Z,99780.07
2023-05-16T10:31:51.643Z,99781.92
2023-05-16T10:34:20.520Z,99782.75
2023-05-16T10:36:49.182Z,99778.92
2023-05-16T10:39:18.190Z,99779.11
2023-05-16T10:41:46.664Z,99781.21
2023-05-16T10:44:18.409Z,99782.70
2023-05-16T10:46:49.861Z,99792.40
2023-05-16T10:49:21.295Z,99798.42
2023-05-16T10:52:18.632Z,99801.95
2023-05-16T10:54:54.132Z,99804.40
2023-05-16T10:57:24.658Z,99803.80
2023-05-16T10:59:56.701Z,99803.52
2023-05-16T11:02:35.350Z,99802.80
2023-05-16T11:05:03.910Z,99802.04
2023-05-16T11:07:36.940Z,99809.58
2023-05-16T11:10:07.277Z,99814.50
2023-05-16T11:12:46.773Z,99820.13
2023-05-16T11:15:21.943Z,99821.89
2023-05-16T11:17:51.281Z,99830.48
2023-05-16T11:20:26.628Z,99827.71
2023-05-16T11:23:15.009Z,99831.05
2023-05-16T11:25:46.204Z,99836.59
2023-05-16T11:28:15.351Z,99837.73
2023-05-16T11:30:45.467Z,99835.87
2023-05-16T11:33:14.017Z,99837.06
2023-05-16T11:35:44.105Z,99850.29
2023-05-16T11:38:19.424Z,99859.10
2023-05-16T11:40:48.399Z,99866.73
2023-05-16T11:43:20.354Z,99863.20
2023-05-16T11:45:55.220Z,99866.50
2023-05-16T11:48:35.687Z,99874.33
2023-05-16T11:51:07.419Z,99880.89
2023-05-16T11:53:37.617Z,99881.04
2023-05-16T11:56:09.236Z,99887.05
2023-05-16T11:58:40.402Z,99881.04
2023-05-16T12:01:10.481Z,99881.67
2023-05-16T12:03:41.047Z,99880.56
2023-05-16T12:06:10.723Z,99880.64
2023-05-16T12:08:39.647Z,99876.40
2023-05-16T12:11:10.818Z,99880.72
2023-05-16T12:13:39.858Z,99888.55
2023-05-16T12:16:09.167Z,99895.33
2023-05-16T12:18:42.685Z,99897.70
2023-05-16T12:21:13.280Z,99899.27
2023-05-16T12:23:43.845Z,99903.87
2023-05-16T12:26:12.207Z,99901.63
2023-05-16T12:28:41.795Z,99908.41
2023-05-16T12:31:31.065Z,99911.16
2023-05-16T12:34:01.805Z,99911.84
2023-05-16T12:36:38.219Z,99917.30
2023-05-16T12:39:09.242Z,99922.04
2023-05-16T12:41:42.058Z,99926.98
2023-05-16T12:44:17.810Z,99928.67
2023-05-16T12:46:49.068Z,99932.84
2023-05-16T12:49:23.210Z,99934.09
2023-05-16T12:51:52.930Z,99936.52
2023-05-16T12:54:23.815Z,99941.31
2023-05-16T12:56:52.957Z,99937.06
2023-05-16T12:59:22.036Z,99944.04
2023-05-16T13:01:51.442Z,99943.34
2023-05-16T13:04:21.164Z,99947.92
2023-05-16T13:09:22.389Z,99960.92
2023-05-16T13:11:51.572Z,99957.91
2023-05-16T13:14:20.813Z,99958.58
2023-05-16T13:16:49.620Z,99953.67
2023-05-16T13:19:18.867Z,99947.54
2023-05-16T13:21:47.779Z,99952.71
2023-05-16T13:24:17.683Z,99953.83
2023-05-16T13:26:46.833Z,99957.59
2023-05-16T13:29:16.847Z,99955.02
2023-05-16T13:31:45.901Z,99948.72
2023-05-16T13:34:14.104Z,99946.26
2023-05-16T13:36:53.865Z,99950.60
2023-05-16T13:39:24.297Z,99954.23
2023-05-16T13:41:53.354Z,99951.35
2023-05-16T13:44:23.210Z,99945.59
2023-05-16T13:46:52.396Z,99944.91
2023-05-16T13:49:21.483Z,99950.42
2023-05-16T13:51:50.480Z,99950.52
2023-05-16T13:54:20.195Z,99949.41
2023-05-16T13:56:49.816Z,99953.85
2023-05-16T13:59:27.477Z,99959.94
2023-05-16T14:02:08.523Z,99967.36
2023-05-16T14:04:37.815Z,99970.06
2023-05-16T14:07:06.909Z,99969.25
2023-05-16T14:09:37.633Z,99968.66
2023-05-16T14:12:09.529Z,99965.16
2023-05-16T14:14:37.964Z,99959.55
2023-05-16T14:17:07.261Z,99956.38
2023-05-16T14:19:37.354Z,99957.33
2023-05-16T14:22:06.104Z,99954.08
2023-05-16T14:24:35.090Z,99955.90
2023-05-16T14:27:03.763Z,99962.02
2023-05-16T14:29:32.579Z,99954.67
2023-05-16T14:32:01.176Z,99957.02
2023-05-16T14:34:30.437Z,99960.42
2023-05-16T14:36:58.710Z,99962.48
2023-05-16T14:39:27.870Z,99960.71
2023-05-16T14:41:56.802Z,99955.04
2023-05-16T14:44:25.681Z,99953.86
2023-05-16T14:46:54.473Z,99953.77
2023-05-16T14:49:22.730Z,99952.58
2023-05-16T14:51:52.278Z,99950.99
2023-05-16T14:54:21.714Z,99950.27
2023-05-16T14:56:50.552Z,99951.66
2023-05-16T14:59:19.001Z,99953.18
2023-05-16T15:01:47.659Z,99952.75
2023-05-16T15:04:16.628Z,99955.14
2023-05-16T15:06:45.587Z,99950.89
2023-05-16T15:09:14.588Z,99947.12
2023-05-16T15:11:43.752Z,99945.19
2023-05-16T15:14:12.511Z,99945.25
2023-05-16T15:16:41.788Z,99938.98
2023-05-16T15:19:10.221Z,99939.32
2023-05-16T15:21:39.101Z,99940.92
2023-05-16T15:24:08.685Z,99943.79
2023-05-16T15:26:38.736Z,99947.06
2023-05-16T15:29:07.624Z,99949.48
2023-05-16T15:31:36.511Z,99953.21
2023-05-16T15:34:08.061Z,99955.83
2023-05-16T15:36:37.227Z,99959.02
2023-05-16T15:39:06.096Z,99956.88
2023-05-16T15:42:00.509Z,99950.88
2023-05-16T15:44:24.915Z,99951.89
2023-05-16T15:46:53.920Z,99953.20
2023-05-16T15:49:22.766Z,99955.09
2023-05-16T15:51:51.875Z,99963.44
2023-05-16T15:54:21.498Z,99960.11
2023-05-16T15:56:50.477Z,99960.64
2023-05-16T15:59:19.792Z,99958.39
2023-05-16T16:01:48.930Z,99958.72
2023-05-16T16:04:19.912Z,99959.40
2023-05-16T16:06:51.073Z,99954.45
2023-05-16T16:09:20.014Z,99956.48
2023-05-16T16:11:50.640Z,99961.14
2023-05-16T16:14:19.792Z,99963.77
2023-05-16T16:16:49.016Z,99966.89
2023-05-16T16:19:18.630Z,99961.95
2023-05-16T16:21:47.806Z,99962.23
2023-05-16T16:24:17.158Z,99964.02
2023-05-16T16:26:46.626Z,99962.59
2023-05-16T16:29:15.479Z,99964.96
2023-05-16T16:31:44.580Z,99966.52
2023-05-16T16:34:13.314Z,99972.38
2023-05-16T16:36:42.740Z,99974.89
2023-05-16T16:39:11.929Z,99974.08
2023-05-16T16:41:40.784Z,99973.85
2023-05-16T16:44:09.705Z,99978.48
2023-05-16T16:46:38.830Z,99980.83
2023-05-16T16:49:08.034Z,99979.00
2023-05-16T16:51:37.447Z,99980.83
2023-05-16T16:54:06.289Z,99975.58
2023-05-16T16:56:34.823Z,99981.48
2023-05-16T16:59:04.437Z,99989.35
2023-05-16T17:01:34.934Z,99989.82
2023-05-16T17:04:03.982Z,99991.04
2023-05-16T17:06:32.346Z,99992.23
2023-05-16T17:09:04.108Z,99992.91
2023-05-16T17:11:36.490Z,99993.43
2023-05-16T17:14:06.610Z,99991.39
2023-05-16T17:16:35.633Z,99993.51
2023-05-16T17:19:05.232Z,99991.96
2023-05-16T17:21:37.418Z,99997.25
2023-05-16T17:24:07.113Z,100001.71
2023-05-16T17:26:36.269Z,100011.48
2023-05-16T17:29:05.437Z,100013.38
2023-05-16T17:31:33.940Z,100013.55
2023-05-16T17:34:03.766Z,100014.48
2023-05-16T17:36:32.443Z,100018.91
2023-05-16T17:39:01.235Z,100024.73
2023-05-16T17:41:29.703Z,100025.73
2023-05-16T17:43:58.266Z,100032.47
2023-05-16T17:46:27.284Z,100032.28
2023-05-16T17:48:56.052Z,100035.17
2023-05-16T17:51:24.380Z,100034.76
2023-05-16T17:53:53.209Z,100034.00
2023-05-16T17:56:21.825Z,100031.91
2023-05-16T17:58:50.997Z,100031.83
2023-05-16T18:01:19.833Z,100030.58
2023-05-16T18:03:49.483Z,100028.58
2023-05-16T18:06:18.868Z,100028.13
2023-05-16T18:08:47.411Z,100033.15
2023-05-16T18:11:16.432Z,100034.73
2023-05-16T18:13:46.024Z,100038.02
2023-05-16T18:16:14.962Z,100040.48
2023-05-16T18:18:46.134Z,100045.48
2023-05-16T18:21:15.611Z,100045.46
2023-05-16T18:23:44.413Z,100045.76
2023-05-16T18:26:13.924Z,100051.63
2023-05-16T18:28:43.954Z,100052.71
2023-05-16T18:31:12.261Z,100057.18
2023-05-16T18:33:40.957Z,100062.29
2023-05-16T18:36:09.369Z,100068.25
2023-05-16T18:38:38.286Z,100072.11
2023-05-16T18:41:08.185Z,100074.20
2023-05-16T18:43:37.466Z,100076.95
2023-05-16T18:46:06.656Z,100082.16
2023-05-16T18:48:36.355Z,100086.13
2023-05-16T18:51:06.475Z,100088.70
2023-05-16T18:53:36.969Z,100088.48
2023-05-16T18:56:06.450Z,100092.35
2023-05-16T18:58:36.226Z,100095.81
2023-05-16T19:01:05.720Z,100101.55
2023-05-16T19:03:35.101Z,100106.23
2023-05-16T19:06:04.777Z,100100.99
2023-05-16T19:08:47.034Z,100105.99
2023-05-16T19:11:18.123Z,100098.56
2023-05-16T19:13:47.887Z,100103.42
2023-05-16T19:16:17.651Z,100106.23
2023-05-16T19:18:47.656Z,100108.48
2023-05-16T19:21:18.390Z,100110.15
2023-05-16T19:23:48.064Z,100113.08
2023-05-16T19:26:20.096Z,100113.80
2023-05-16T19:28:54.599Z,100118.15
2023-05-16T19:31:28.325Z,100116.86
2023-05-16T19:33:59.834Z,100120.59
2023-05-16T19:36:30.292Z,100123.14
2023-05-16T19:39:00.445Z,100124.27
2023-05-16T19:41:30.608Z,100127.36
2023-05-16T19:44:09.574Z,100129.22
2023-05-16T19:46:41.076Z,100127.84
2023-05-16T19:49:16.425Z,100128.90
2023-05-16T19:51:47.338Z,100131.00
2023-05-16T19:54:18.100Z,100129.15
2023-05-16T19:56:49.259Z,100123.89
2023-05-16T19:59:20.091Z,100126.19
2023-05-16T20:01:49.219Z,100127.43
2023-05-16T20:04:18.597Z,100130.20
2023-05-16T20:06:52.943Z,100129.61
2023-05-16T20:09:25.816Z,100136.94
2023-05-16T20:12:00.006Z,100137.45
2023-05-16T20:14:32.653Z,100141.81
2023-05-16T20:17:04.486Z,100143.58
2023-05-16T20:19:36.800Z,100144.62
2023-05-16T20:22:08.479Z,100148.16
2023-05-16T20:24:39.965Z,100144.57
2023-05-16T20:27:13.505Z,100146.38
2023-05-16T20:29:44.577Z,100147.79
2023-05-16T20:32:18.380Z,100150.44
2023-05-16T20:34:50.183Z,100156.27
2023-05-16T20:37:28.544Z,100157.12
2023-05-16T20:40:03.699Z,100158.73
2023-05-16T20:42:39.763Z,100161.24
2023-05-16T20:45:26.287Z,100162.89
2023-05-16T20:47:56.425Z,100161.23
2023-05-16T20:50:27.459Z,100166.68
2023-05-16T20:52:58.585Z,100173.64
2023-05-16T20:55:46.826Z,100174.93
2023-05-16T20:58:19.648Z,100177.17
2023-05-16T21:00:56.807Z,100180.08
2023-05-16T21:03:26.176Z,100179.71
2023-05-16T21:05:56.464Z,100181.49
2023-05-16T21:08:27.025Z,100181.37
2023-05-16T21:11:00.302Z,100179.39
2023-05-16T21:13:32.622Z,100181.10
2023-05-16T21:16:03.026Z,100178.06
2023-05-16T21:18:32.773Z,100175.27
2023-05-16T21:21:03.256Z,100181.09
2023-05-16T21:23:33.148Z,100183.65
2023-05-16T21:26:03.541Z,100187.30
2023-05-16T21:28:39.704Z,100186.54
2023-05-16T21:31:17.548Z,100188.23
2023-05-16T21:33:47.469Z,100190.19
2023-05-16T21:36:17.570Z,100190.12
2023-05-16T21:38:47.680Z,100193.88
2023-05-16T21:41:19.308Z,100193.73
2023-05-16T21:43:49.147Z,100195.98
2023-05-16T21:46:18.425Z,100201.54
2023-05-16T21:48:49.650Z,100202.81
2023-05-16T21:51:19.779Z,100203.05
2023-05-16T21:53:49.778Z,100205.71
2023-05-16T21:56:20.170Z,100202.65
2023-05-16T21:58:49.718Z,100206.40
2023-05-16T22:01:21.674Z,100210.23
2023-05-16T22:03:53.908Z,100210.52
2023-05-16T22:06:23.058Z,100211.84
2023-05-16T22:08:52.151Z,100209.66
2023-05-16T22:11:22.631Z,100211.28
2023-05-16T22:13:51.998Z,100213.88
2023-05-16T22:16:20.871Z,100213.57
2023-05-16T22:18:50.359Z,100214.35
2023-05-16T22:21:20.478Z,100217.27
2023-05-16T22:23:49.442Z,100211.34
2023-05-16T22:26:18.490Z,100212.44
2023-05-16T22:28:47.509Z,100219.71
2023-05-16T22:31:16.313Z,100221.52
2023-05-16T22:33:45.680Z,100218.13
2023-05-16T22:36:14.858Z,100224.15
2023-05-16T22:38:43.845Z,100222.48
2023-05-16T22:41:13.035Z,100218.19
2023-05-16T22:43:41.895Z,100223.75
2023-05-16T22:46:11.192Z,100221.57
2023-05-16T22:48:39.838Z,100222.95
2023-05-16T22:51:08.426Z,100223.17
2023-05-16T22:53:37.676Z,100225.17
2023-05-16T22:56:07.520Z,100228.05
2023-05-16T22:58:36.739Z,100234.23
2023-05-16T23:01:07.041Z,100235.17
2023-05-16T23:03:36.525Z,100234.67
2023-05-16T23:06:05.989Z,100237.74
2023-05-16T23:08:34.663Z,100241.47
2023-05-16T23:11:03.681Z,100239.91
2023-05-16T23:13:32.734Z,100237.45
2023-05-16T23:16:01.756Z,100235.88
2023-05-16T23:18:30.948Z,100237.27
2023-05-16T23:21:00.266Z,100232.69
2023-05-16T23:23:28.484Z,100233.21
2023-05-16T23:25:57.612Z,100236.67
2023-05-16T23:28:26.387Z,100236.91
2023-05-16T23:30:55.549Z,100236.60
2023-05-16T23:33:24.084Z,100240.00
2023-05-16T23:35:53.279Z,100238.55
2023-05-16T23:38:23.197Z,100236.28
2023-05-16T23:40:52.571Z,100240.23
2023-05-16T23:43:22.217Z,100240.72
2023-05-16T23:45:51.351Z,100246.92
2023-05-16T23:48:20.464Z,100247.33
2023-05-16T23:50:49.580Z,100249.02
2023-05-16T23:53:18.663Z,100253.52
2023-05-16T23:55:47.484Z,100252.31
2023-05-16T23:58:16.181Z,100243.41
